Huvudsida
METAR-TAF:

METAR-TAF

Flygplatser :

Martinique Aimé Césaires internationella flygplats

Fort-de-France, Martinique

latitud: 14-36N, longitud: 061-00W, höjd: 5 m

Aktuellt väderrapport

Denna rapport gjordes för 10 minuter sedan, klockan 01:00 UTC
Vind 9 kt från ost/sydost
Temperatur 27°C
Fuktighet 74%
Tryck 1014 hPa
Sikt 10 km eller mer
Få moln på en höjd av 2800 ft
Spridda moln på en höjd av 3600 ft

METAR: TFFF 220100Z AUTO 11009KT 9999 FEW028 SCT036 27/22 Q1014 TEMPO 4000 SHRA SCT018TCU

Tid: 21:10 (01:10 UTC)

Väderprognos

Denna rapport gjordes för 3 timmar och 10 minuter sedan, klockan 22:00 UTC
Prognos gäller från 22 kl. 00 UTC till 22 kl. 24 UTC
Vind 8 kt från ost/nordost
Sikt 10 km eller mer
Spridda moln på en höjd av 3000 ft
Sannolikhet 30% :
Temporärt
från 22 kl. 02 UTC till 22 kl. 12 UTC
Sikt: 4000 m
Spridda moln på en höjd av 1800 ft, Högtornande cumulus.
regnskurar

TAF: TFFF 212200Z 2200/2224 07008KT 9999 SCT030 PROB30 TEMPO 2202/2212 4000 SHRA SCT018TCU

Aktuella väderrapporter och prognoser från 4000 flygplatser (METAR- och TAF-rapporter).

De tillgängliga stationerna syns som gula och röda prickar på kartan.

För musen över prickarna för att se namnen på stationerna.

Klicka sedan för att få väderrapporter och prognoser.

För att ändra kartan: Klicka på de gröna knapparna med ett svart kors på för att zooma in; den gröna knappen med ett streck på för att zooma ut; eller på de gröna pilarna för angränsande kartor.


METAR-TAF: